sensor_id;sensor_type;location;lat;lon;timestamp;temperature;humidity
19397;DHT22;9834;48.076;11.878;2023-08-30T00:01:56;12.30;99.90
19397;DHT22;9834;48.076;11.878;2023-08-30T00:04:23;12.40;99.90
19397;DHT22;9834;48.076;11.878;2023-08-30T00:07:00;12.40;99.90
19397;DHT22;9834;48.076;11.878;2023-08-30T00:09:27;12.40;99.90
19397;DHT22;9834;48.076;11.878;2023-08-30T00:12:00;12.40;99.90
19397;DHT22;9834;48.076;11.878;2023-08-30T00:14:28;12.30;99.90
19397;DHT22;9834;48.076;11.878;2023-08-30T00:16:55;12.30;99.90
19397;DHT22;9834;48.076;11.878;2023-08-30T00:19:22;12.40;99.90
19397;DHT22;9834;48.076;11.878;2023-08-30T00:21:52;12.30;99.90
19397;DHT22;9834;48.076;11.878;2023-08-30T00:24:35;12.30;99.90
19397;DHT22;9834;48.076;11.878;2023-08-30T00:27:05;12.30;99.90
19397;DHT22;9834;48.076;11.878;2023-08-30T00:29:35;12.30;99.90
19397;DHT22;9834;48.076;11.878;2023-08-30T00:32:02;12.30;99.90
19397;DHT22;9834;48.076;11.878;2023-08-30T00:34:34;12.30;99.90
19397;DHT22;9834;48.076;11.878;2023-08-30T00:37:11;12.30;99.90
19397;DHT22;9834;48.076;11.878;2023-08-30T00:39:41;12.20;99.90
19397;DHT22;9834;48.076;11.878;2023-08-30T00:42:14;12.30;99.90
19397;DHT22;9834;48.076;11.878;2023-08-30T00:44:49;12.20;99.90
19397;DHT22;9834;48.076;11.878;2023-08-30T00:47:16;12.20;99.90
19397;DHT22;9834;48.076;11.878;2023-08-30T00:49:43;12.20;99.90
19397;DHT22;9834;48.076;11.878;2023-08-30T00:52:13;12.20;99.90
19397;DHT22;9834;48.076;11.878;2023-08-30T00:54:51;12.20;99.90
19397;DHT22;9834;48.076;11.878;2023-08-30T00:57:24;12.20;99.90
19397;DHT22;9834;48.076;11.878;2023-08-30T00:59:53;12.10;99.90
19397;DHT22;9834;48.076;11.878;2023-08-30T01:02:35;12.10;99.90
19397;DHT22;9834;48.076;11.878;2023-08-30T01:05:03;12.20;99.90
19397;DHT22;9834;48.076;11.878;2023-08-30T01:07:30;12.20;99.90
19397;DHT22;9834;48.076;11.878;2023-08-30T01:10:06;12.20;99.90
19397;DHT22;9834;48.076;11.878;2023-08-30T01:12:38;12.20;99.90
19397;DHT22;9834;48.076;11.878;2023-08-30T01:15:23;12.20;99.90
19397;DHT22;9834;48.076;11.878;2023-08-30T01:17:54;12.20;99.90
19397;DHT22;9834;48.076;11.878;2023-08-30T01:20:25;12.30;99.90
19397;DHT22;9834;48.076;11.878;2023-08-30T01:23:03;12.30;99.90
19397;DHT22;9834;48.076;11.878;2023-08-30T01:25:48;12.20;99.90
19397;DHT22;9834;48.076;11.878;2023-08-30T01:28:34;12.20;99.90
19397;DHT22;9834;48.076;11.878;2023-08-30T01:31:02;12.20;99.90
19397;DHT22;9834;48.076;11.878;2023-08-30T01:33:31;12.20;99.90
19397;DHT22;9834;48.076;11.878;2023-08-30T01:36:00;12.20;99.90
19397;DHT22;9834;48.076;11.878;2023-08-30T01:38:39;12.20;99.90
19397;DHT22;9834;48.076;11.878;2023-08-30T01:41:07;12.20;99.90
19397;DHT22;9834;48.076;11.878;2023-08-30T01:43:36;12.10;99.90
19397;DHT22;9834;48.076;11.878;2023-08-30T01:46:14;12.10;99.90
19397;DHT22;9834;48.076;11.878;2023-08-30T01:48:43;12.10;99.90
19397;DHT22;9834;48.076;11.878;2023-08-30T01:51:14;12.10;99.90
19397;DHT22;9834;48.076;11.878;2023-08-30T01:53:46;12.10;99.90
19397;DHT22;9834;48.076;11.878;2023-08-30T01:56:17;12.10;99.90
19397;DHT22;9834;48.076;11.878;2023-08-30T01:59:05;12.10;99.90
19397;DHT22;9834;48.076;11.878;2023-08-30T02:01:37;12.10;99.90
19397;DHT22;9834;48.076;11.878;2023-08-30T02:04:04;12.10;99.90
19397;DHT22;9834;48.076;11.878;2023-08-30T02:06:39;12.10;99.90
19397;DHT22;9834;48.076;11.878;2023-08-30T02:09:17;12.10;99.90
19397;DHT22;9834;48.076;11.878;2023-08-30T02:11:49;12.00;99.90
19397;DHT22;9834;48.076;11.878;2023-08-30T02:14:41;12.10;99.90
19397;DHT22;9834;48.076;11.878;2023-08-30T02:17:17;12.00;99.90
19397;DHT22;9834;48.076;11.878;2023-08-30T02:19:44;12.00;99.90
19397;DHT22;9834;48.076;11.878;2023-08-30T02:22:14;12.00;99.90
19397;DHT22;9834;48.076;11.878;2023-08-30T02:24:41;12.10;99.90
19397;DHT22;9834;48.076;11.878;2023-08-30T02:27:21;12.10;99.90
19397;DHT22;9834;48.076;11.878;2023-08-30T02:29:52;12.10;99.90
19397;DHT22;9834;48.076;11.878;2023-08-30T02:32:21;12.00;99.90
19397;DHT22;9834;48.076;11.878;2023-08-30T02:34:51;12.10;99.90
19397;DHT22;9834;48.076;11.878;2023-08-30T02:37:23;12.10;99.90
19397;DHT22;9834;48.076;11.878;2023-08-30T02:39:50;12.10;99.90
19397;DHT22;9834;48.076;11.878;2023-08-30T02:42:23;12.10;99.90
19397;DHT22;9834;48.076;11.878;2023-08-30T02:44:55;12.10;99.90
19397;DHT22;9834;48.076;11.878;2023-08-30T02:47:22;12.10;99.90
19397;DHT22;9834;48.076;11.878;2023-08-30T02:49:55;12.10;99.90
19397;DHT22;9834;48.076;11.878;2023-08-30T02:52:27;12.10;99.90
19397;DHT22;9834;48.076;11.878;2023-08-30T02:54:57;12.10;99.90
19397;DHT22;9834;48.076;11.878;2023-08-30T02:57:27;12.20;99.90
19397;DHT22;9834;48.076;11.878;2023-08-30T02:59:58;12.10;99.90
19397;DHT22;9834;48.076;11.878;2023-08-30T03:02:25;12.10;99.90
19397;DHT22;9834;48.076;11.878;2023-08-30T03:04:52;12.10;99.90
19397;DHT22;9834;48.076;11.878;2023-08-30T03:07:22;12.10;99.90
19397;DHT22;9834;48.076;11.878;2023-08-30T03:09:54;12.20;99.90
19397;DHT22;9834;48.076;11.878;2023-08-30T03:12:23;12.20;99.90
19397;DHT22;9834;48.076;11.878;2023-08-30T03:14:50;12.20;99.90
19397;DHT22;9834;48.076;11.878;2023-08-30T03:17:18;12.10;99.90
19397;DHT22;9834;48.076;11.878;2023-08-30T03:19:51;12.10;99.90
19397;DHT22;9834;48.076;11.878;2023-08-30T03:22:21;12.20;99.90
19397;DHT22;9834;48.076;11.878;2023-08-30T03:24:54;12.20;99.90
19397;DHT22;9834;48.076;11.878;2023-08-30T03:27:24;12.20;99.90
19397;DHT22;9834;48.076;11.878;2023-08-30T03:30:03;12.10;99.90
19397;DHT22;9834;48.076;11.878;2023-08-30T03:32:34;12.10;99.90
19397;DHT22;9834;48.076;11.878;2023-08-30T03:35:03;12.20;99.90
19397;DHT22;9834;48.076;11.878;2023-08-30T03:37:30;12.20;99.90
19397;DHT22;9834;48.076;11.878;2023-08-30T03:39:57;12.20;99.90
19397;DHT22;9834;48.076;11.878;2023-08-30T03:42:24;12.20;99.90
19397;DHT22;9834;48.076;11.878;2023-08-30T03:45:03;12.20;99.90
19397;DHT22;9834;48.076;11.878;2023-08-30T03:47:40;12.20;99.90
19397;DHT22;9834;48.076;11.878;2023-08-30T03:50:07;12.20;99.90
19397;DHT22;9834;48.076;11.878;2023-08-30T03:52:35;12.20;99.90
19397;DHT22;9834;48.076;11.878;2023-08-30T03:55:06;12.20;99.90
19397;DHT22;9834;48.076;11.878;2023-08-30T03:57:35;12.20;99.90
19397;DHT22;9834;48.076;11.878;2023-08-30T04:00:03;12.20;99.90
19397;DHT22;9834;48.076;11.878;2023-08-30T04:02:32;12.10;99.90
19397;DHT22;9834;48.076;11.878;2023-08-30T04:05:08;12.10;99.90
19397;DHT22;9834;48.076;11.878;2023-08-30T04:07:41;12.10;99.90
19397;DHT22;9834;48.076;11.878;2023-08-30T04:10:09;12.10;99.90
19397;DHT22;9834;48.076;11.878;2023-08-30T04:12:38;12.10;99.90
19397;DHT22;9834;48.076;11.878;2023-08-30T04:15:10;12.10;99.90
19397;DHT22;9834;48.076;11.878;2023-08-30T04:17:38;12.10;99.90
19397;DHT22;9834;48.076;11.878;2023-08-30T04:20:10;12.10;99.90
19397;DHT22;9834;48.076;11.878;2023-08-30T04:22:40;12.10;99.90
19397;DHT22;9834;48.076;11.878;2023-08-30T04:25:08;12.10;99.90
19397;DHT22;9834;48.076;11.878;2023-08-30T04:27:40;12.00;99.90
19397;DHT22;9834;48.076;11.878;2023-08-30T04:30:09;12.00;99.90
19397;DHT22;9834;48.076;11.878;2023-08-30T04:32:36;12.00;99.90
19397;DHT22;9834;48.076;11.878;2023-08-30T04:35:09;12.00;99.90
19397;DHT22;9834;48.076;11.878;2023-08-30T04:37:36;12.00;99.90
19397;DHT22;9834;48.076;11.878;2023-08-30T04:40:07;12.00;99.90
19397;DHT22;9834;48.076;11.878;2023-08-30T04:42:36;12.00;99.90
19397;DHT22;9834;48.076;11.878;2023-08-30T04:45:07;12.00;99.90
19397;DHT22;9834;48.076;11.878;2023-08-30T04:47:41;12.10;99.90
19397;DHT22;9834;48.076;11.878;2023-08-30T04:50:12;12.10;99.90
19397;DHT22;9834;48.076;11.878;2023-08-30T04:52:42;12.10;99.90
19397;DHT22;9834;48.076;11.878;2023-08-30T04:55:09;12.10;99.90
19397;DHT22;9834;48.076;11.878;2023-08-30T04:57:50;12.10;99.90
19397;DHT22;9834;48.076;11.878;2023-08-30T05:00:20;12.10;99.90
19397;DHT22;9834;48.076;11.878;2023-08-30T05:02:50;12.20;99.90
19397;DHT22;9834;48.076;11.878;2023-08-30T05:05:21;12.20;99.90
19397;DHT22;9834;48.076;11.878;2023-08-30T05:07:48;12.20;99.90
19397;DHT22;9834;48.076;11.878;2023-08-30T05:10:16;12.10;99.90
19397;DHT22;9834;48.076;11.878;2023-08-30T05:12:51;12.10;99.90
19397;DHT22;9834;48.076;11.878;2023-08-30T05:15:24;12.10;99.90
19397;DHT22;9834;48.076;11.878;2023-08-30T05:17:51;12.10;99.90
19397;DHT22;9834;48.076;11.878;2023-08-30T05:20:18;12.10;99.90
19397;DHT22;9834;48.076;11.878;2023-08-30T05:22:51;12.00;99.90
19397;DHT22;9834;48.076;11.878;2023-08-30T05:25:20;12.10;99.90
19397;DHT22;9834;48.076;11.878;2023-08-30T05:27:47;12.10;99.90
19397;DHT22;9834;48.076;11.878;2023-08-30T05:30:16;12.20;99.90
19397;DHT22;9834;48.076;11.878;2023-08-30T05:32:43;12.20;99.90
19397;DHT22;9834;48.076;11.878;2023-08-30T05:35:26;12.30;99.90
19397;DHT22;9834;48.076;11.878;2023-08-30T05:38:03;12.40;99.90
19397;DHT22;9834;48.076;11.878;2023-08-30T05:40:33;12.40;99.90
19397;DHT22;9834;48.076;11.878;2023-08-30T05:43:03;12.50;99.90
19397;DHT22;9834;48.076;11.878;2023-08-30T05:45:35;12.50;99.90
19397;DHT22;9834;48.076;11.878;2023-08-30T05:48:06;12.40;99.90
19397;DHT22;9834;48.076;11.878;2023-08-30T05:50:33;12.40;99.90
19397;DHT22;9834;48.076;11.878;2023-08-30T05:53:03;12.40;99.90
19397;DHT22;9834;48.076;11.878;2023-08-30T05:55:37;12.40;99.90
19397;DHT22;9834;48.076;11.878;2023-08-30T05:58:07;12.40;99.90
19397;DHT22;9834;48.076;11.878;2023-08-30T06:00:34;12.40;99.90
19397;DHT22;9834;48.076;11.878;2023-08-30T06:03:01;12.40;99.90
19397;DHT22;9834;48.076;11.878;2023-08-30T06:05:28;12.40;99.90
19397;DHT22;9834;48.076;11.878;2023-08-30T06:07:55;12.50;99.90
19397;DHT22;9834;48.076;11.878;2023-08-30T06:10:29;12.50;99.90
19397;DHT22;9834;48.076;11.878;2023-08-30T06:12:56;12.50;99.90
19397;DHT22;9834;48.076;11.878;2023-08-30T06:15:26;12.40;99.90
19397;DHT22;9834;48.076;11.878;2023-08-30T06:17:57;12.50;99.90
19397;DHT22;9834;48.076;11.878;2023-08-30T06:20:28;12.50;99.90
19397;DHT22;9834;48.076;11.878;2023-08-30T06:23:02;12.50;99.90
19397;DHT22;9834;48.076;11.878;2023-08-30T06:25:33;12.60;99.90
19397;DHT22;9834;48.076;11.878;2023-08-30T06:28:01;12.70;99.90
19397;DHT22;9834;48.076;11.878;2023-08-30T06:30:29;12.70;99.90
19397;DHT22;9834;48.076;11.878;2023-08-30T06:32:56;12.90;99.90
19397;DHT22;9834;48.076;11.878;2023-08-30T06:35:23;12.90;99.90
19397;DHT22;9834;48.076;11.878;2023-08-30T06:37:53;13.00;99.90
19397;DHT22;9834;48.076;11.878;2023-08-30T06:40:28;13.10;99.90
19397;DHT22;9834;48.076;11.878;2023-08-30T06:42:56;13.10;99.90
19397;DHT22;9834;48.076;11.878;2023-08-30T06:45:27;13.10;99.90
19397;DHT22;9834;48.076;11.878;2023-08-30T06:47:57;13.10;99.90
19397;DHT22;9834;48.076;11.878;2023-08-30T06:50:26;13.20;99.90
19397;DHT22;9834;48.076;11.878;2023-08-30T06:52:53;13.30;99.90
19397;DHT22;9834;48.076;11.878;2023-08-30T06:55:23;13.40;99.90
19397;DHT22;9834;48.076;11.878;2023-08-30T06:57:49;13.30;99.90
19397;DHT22;9834;48.076;11.878;2023-08-30T07:00:18;13.40;99.90
19397;DHT22;9834;48.076;11.878;2023-08-30T07:02:48;13.50;99.90
19397;DHT22;9834;48.076;11.878;2023-08-30T07:05:21;13.70;99.90
19397;DHT22;9834;48.076;11.878;2023-08-30T07:07:48;13.80;99.90
19397;DHT22;9834;48.076;11.878;2023-08-30T07:10:16;13.70;99.90
19397;DHT22;9834;48.076;11.878;2023-08-30T07:12:42;13.70;99.90
19397;DHT22;9834;48.076;11.878;2023-08-30T07:15:11;13.70;99.90
19397;DHT22;9834;48.076;11.878;2023-08-30T07:17:42;13.90;99.90
19397;DHT22;9834;48.076;11.878;2023-08-30T07:20:11;14.00;99.90
19397;DHT22;9834;48.076;11.878;2023-08-30T07:22:38;14.00;99.90
19397;DHT22;9834;48.076;11.878;2023-08-30T07:25:07;13.80;99.90
19397;DHT22;9834;48.076;11.878;2023-08-30T07:27:34;13.60;99.90
19397;DHT22;9834;48.076;11.878;2023-08-30T07:30:01;13.70;99.90
19397;DHT22;9834;48.076;11.878;2023-08-30T07:32:32;13.80;99.90
19397;DHT22;9834;48.076;11.878;2023-08-30T07:35:03;13.70;99.90
19397;DHT22;9834;48.076;11.878;2023-08-30T07:37:33;13.90;99.90
19397;DHT22;9834;48.076;11.878;2023-08-30T07:40:05;14.00;99.90
19397;DHT22;9834;48.076;11.878;2023-08-30T07:42:50;14.10;99.90
19397;DHT22;9834;48.076;11.878;2023-08-30T07:45:17;14.20;99.90
19397;DHT22;9834;48.076;11.878;2023-08-30T07:47:44;14.20;99.90
19397;DHT22;9834;48.076;11.878;2023-08-30T07:50:15;14.10;99.90
19397;DHT22;9834;48.076;11.878;2023-08-30T07:52:42;14.10;99.90
19397;DHT22;9834;48.076;11.878;2023-08-30T07:55:13;14.10;99.90
19397;DHT22;9834;48.076;11.878;2023-08-30T07:57:40;14.20;99.90
19397;DHT22;9834;48.076;11.878;2023-08-30T08:00:11;14.30;99.90
19397;DHT22;9834;48.076;11.878;2023-08-30T08:02:39;14.30;99.90
19397;DHT22;9834;48.076;11.878;2023-08-30T08:05:08;14.30;99.90
19397;DHT22;9834;48.076;11.878;2023-08-30T08:07:43;14.30;99.90
19397;DHT22;9834;48.076;11.878;2023-08-30T08:10:16;14.30;99.90
19397;DHT22;9834;48.076;11.878;2023-08-30T08:12:52;14.20;99.90
19397;DHT22;9834;48.076;11.878;2023-08-30T08:15:23;14.20;99.90
19397;DHT22;9834;48.076;11.878;2023-08-30T08:17:52;14.10;99.90
19397;DHT22;9834;48.076;11.878;2023-08-30T08:20:25;14.30;99.90
19397;DHT22;9834;48.076;11.878;2023-08-30T08:22:54;14.40;99.90
19397;DHT22;9834;48.076;11.878;2023-08-30T08:25:21;14.30;99.90
19397;DHT22;9834;48.076;11.878;2023-08-30T08:27:49;14.50;99.90
19397;DHT22;9834;48.076;11.878;2023-08-30T08:30:19;14.60;99.90
19397;DHT22;9834;48.076;11.878;2023-08-30T08:32:47;14.60;99.90
19397;DHT22;9834;48.076;11.878;2023-08-30T08:35:14;14.50;99.90
19397;DHT22;9834;48.076;11.878;2023-08-30T08:37:44;14.30;99.90
19397;DHT22;9834;48.076;11.878;2023-08-30T08:40:13;14.40;99.90
19397;DHT22;9834;48.076;11.878;2023-08-30T08:42:42;14.50;99.90
19397;DHT22;9834;48.076;11.878;2023-08-30T08:45:13;14.70;99.90
19397;DHT22;9834;48.076;11.878;2023-08-30T08:47:48;14.80;99.90
19397;DHT22;9834;48.076;11.878;2023-08-30T08:50:18;15.00;99.90
19397;DHT22;9834;48.076;11.878;2023-08-30T08:52:47;15.20;99.90
19397;DHT22;9834;48.076;11.878;2023-08-30T08:55:17;15.30;99.90
19397;DHT22;9834;48.076;11.878;2023-08-30T08:57:53;15.50;99.90
19397;DHT22;9834;48.076;11.878;2023-08-30T09:00:20;15.70;99.90
19397;DHT22;9834;48.076;11.878;2023-08-30T09:02:48;15.60;99.90
19397;DHT22;9834;48.076;11.878;2023-08-30T09:05:18;15.50;99.90
19397;DHT22;9834;48.076;11.878;2023-08-30T09:07:45;15.40;99.90
19397;DHT22;9834;48.076;11.878;2023-08-30T09:10:13;15.30;99.90
19397;DHT22;9834;48.076;11.878;2023-08-30T09:12:47;15.40;99.90
19397;DHT22;9834;48.076;11.878;2023-08-30T09:15:17;15.40;99.90
19397;DHT22;9834;48.076;11.878;2023-08-30T09:17:49;15.60;99.90
19397;DHT22;9834;48.076;11.878;2023-08-30T09:20:25;15.60;99.90
19397;DHT22;9834;48.076;11.878;2023-08-30T09:22:52;15.70;99.90
19397;DHT22;9834;48.076;11.878;2023-08-30T09:25:23;15.90;99.90
19397;DHT22;9834;48.076;11.878;2023-08-30T09:27:59;16.10;99.90
19397;DHT22;9834;48.076;11.878;2023-08-30T09:30:29;15.90;99.90
19397;DHT22;9834;48.076;11.878;2023-08-30T09:33:04;16.00;99.90
19397;DHT22;9834;48.076;11.878;2023-08-30T09:35:50;16.10;99.90
19397;DHT22;9834;48.076;11.878;2023-08-30T09:38:18;16.40;99.90
19397;DHT22;9834;48.076;11.878;2023-08-30T09:40:51;16.80;99.90
19397;DHT22;9834;48.076;11.878;2023-08-30T09:43:24;17.00;99.90
19397;DHT22;9834;48.076;11.878;2023-08-30T09:46:03;17.30;99.90
19397;DHT22;9834;48.076;11.878;2023-08-30T09:48:34;17.40;99.90
19397;DHT22;9834;48.076;11.878;2023-08-30T09:51:06;17.70;99.90
19397;DHT22;9834;48.076;11.878;2023-08-30T09:53:42;18.00;99.90
19397;DHT22;9834;48.076;11.878;2023-08-30T09:56:12;18.10;99.90
19397;DHT22;9834;48.076;11.878;2023-08-30T09:58:46;18.40;99.90
19397;DHT22;9834;48.076;11.878;2023-08-30T10:01:13;18.60;99.90
19397;DHT22;9834;48.076;11.878;2023-08-30T10:03:44;18.50;99.90
19397;DHT22;9834;48.076;11.878;2023-08-30T10:06:19;18.30;99.90
19397;DHT22;9834;48.076;11.878;2023-08-30T10:08:48;18.40;99.90
19397;DHT22;9834;48.076;11.878;2023-08-30T10:11:16;18.40;99.90
19397;DHT22;9834;48.076;11.878;2023-08-30T10:13:47;18.20;99.90
19397;DHT22;9834;48.076;11.878;2023-08-30T10:16:19;18.20;99.90
19397;DHT22;9834;48.076;11.878;2023-08-30T10:18:52;18.40;99.90
19397;DHT22;9834;48.076;11.878;2023-08-30T10:21:27;18.70;99.90
19397;DHT22;9834;48.076;11.878;2023-08-30T10:23:56;18.80;99.90
19397;DHT22;9834;48.076;11.878;2023-08-30T10:26:27;19.10;99.90
19397;DHT22;9834;48.076;11.878;2023-08-30T10:29:06;19.50;99.90
19397;DHT22;9834;48.076;11.878;2023-08-30T10:31:33;19.50;99.90
19397;DHT22;9834;48.076;11.878;2023-08-30T10:34:00;19.60;99.90
19397;DHT22;9834;48.076;11.878;2023-08-30T10:36:32;19.50;99.90
19397;DHT22;9834;48.076;11.878;2023-08-30T10:38:59;19.40;99.90
19397;DHT22;9834;48.076;11.878;2023-08-30T10:41:28;19.50;99.90
19397;DHT22;9834;48.076;11.878;2023-08-30T10:44:01;19.90;99.90
19397;DHT22;9834;48.076;11.878;2023-08-30T10:46:32;20.30;99.90
19397;DHT22;9834;48.076;11.878;2023-08-30T10:49:09;20.70;97.10
19397;DHT22;9834;48.076;11.878;2023-08-30T10:51:38;21.20;94.30
19397;DHT22;9834;48.076;11.878;2023-08-30T10:54:15;21.60;95.10
19397;DHT22;9834;48.076;11.878;2023-08-30T10:56:54;22.00;91.80
19397;DHT22;9834;48.076;11.878;2023-08-30T10:59:24;22.50;91.10
19397;DHT22;9834;48.076;11.878;2023-08-30T11:02:00;22.70;90.80
19397;DHT22;9834;48.076;11.878;2023-08-30T11:04:29;23.30;88.20
19397;DHT22;9834;48.076;11.878;2023-08-30T11:06:58;23.40;76.20
19397;DHT22;9834;48.076;11.878;2023-08-30T11:09:31;23.00;81.00
19397;DHT22;9834;48.076;11.878;2023-08-30T11:12:05;23.20;78.20
19397;DHT22;9834;48.076;11.878;2023-08-30T11:14:33;23.10;81.80
19397;DHT22;9834;48.076;11.878;2023-08-30T11:17:12;22.90;81.20
19397;DHT22;9834;48.076;11.878;2023-08-30T11:19:39;22.90;84.70
19397;DHT22;9834;48.076;11.878;2023-08-30T11:22:06;23.70;81.20
19397;DHT22;9834;48.076;11.878;2023-08-30T11:24:34;25.00;75.60
19397;DHT22;9834;48.076;11.878;2023-08-30T11:27:04;25.60;69.10
19397;DHT22;9834;48.076;11.878;2023-08-30T11:29:48;25.60;68.20
19397;DHT22;9834;48.076;11.878;2023-08-30T11:32:20;25.60;64.40
19397;DHT22;9834;48.076;11.878;2023-08-30T11:34:55;25.80;60.10
19397;DHT22;9834;48.076;11.878;2023-08-30T11:37:31;26.10;64.10
19397;DHT22;9834;48.076;11.878;2023-08-30T11:39:59;26.50;61.70
19397;DHT22;9834;48.076;11.878;2023-08-30T11:42:26;26.60;58.30
19397;DHT22;9834;48.076;11.878;2023-08-30T11:44:54;26.50;60.10
19397;DHT22;9834;48.076;11.878;2023-08-30T11:47:26;25.90;58.80
19397;DHT22;9834;48.076;11.878;2023-08-30T11:49:57;25.30;61.80
19397;DHT22;9834;48.076;11.878;2023-08-30T11:52:25;24.80;63.70
19397;DHT22;9834;48.076;11.878;2023-08-30T11:54:53;24.90;61.60
19397;DHT22;9834;48.076;11.878;2023-08-30T11:57:21;24.50;63.60
19397;DHT22;9834;48.076;11.878;2023-08-30T11:59:48;25.00;63.30
19397;DHT22;9834;48.076;11.878;2023-08-30T12:02:18;25.60;60.50
19397;DHT22;9834;48.076;11.878;2023-08-30T12:04:53;25.20;58.20
19397;DHT22;9834;48.076;11.878;2023-08-30T12:07:23;25.00;60.70
19397;DHT22;9834;48.076;11.878;2023-08-30T12:09:50;25.10;59.80
19397;DHT22;9834;48.076;11.878;2023-08-30T12:12:23;24.90;62.80
19397;DHT22;9834;48.076;11.878;2023-08-30T12:14:57;24.90;62.50
19397;DHT22;9834;48.076;11.878;2023-08-30T12:17:26;25.00;60.40
19397;DHT22;9834;48.076;11.878;2023-08-30T12:19:56;25.20;61.60
19397;DHT22;9834;48.076;11.878;2023-08-30T12:22:23;25.60;57.70
19397;DHT22;9834;48.076;11.878;2023-08-30T12:24:52;25.00;58.70
19397;DHT22;9834;48.076;11.878;2023-08-30T12:27:23;24.40;60.20
19397;DHT22;9834;48.076;11.878;2023-08-30T12:29:50;23.80;64.70
19397;DHT22;9834;48.076;11.878;2023-08-30T12:32:20;23.60;64.10
19397;DHT22;9834;48.076;11.878;2023-08-30T12:34:48;23.70;62.30
19397;DHT22;9834;48.076;11.878;2023-08-30T12:37:17;23.90;66.10
19397;DHT22;9834;48.076;11.878;2023-08-30T12:39:45;24.70;67.30
19397;DHT22;9834;48.076;11.878;2023-08-30T12:42:15;25.70;63.20
19397;DHT22;9834;48.076;11.878;2023-08-30T12:44:47;26.20;59.10
19397;DHT22;9834;48.076;11.878;2023-08-30T12:47:14;25.80;57.50
19397;DHT22;9834;48.076;11.878;2023-08-30T12:49:40;25.20;58.40
19397;DHT22;9834;48.076;11.878;2023-08-30T12:52:11;24.80;59.70
19397;DHT22;9834;48.076;11.878;2023-08-30T12:54:47;24.70;60.20
19397;DHT22;9834;48.076;11.878;2023-08-30T12:57:17;24.30;59.70
19397;DHT22;9834;48.076;11.878;2023-08-30T12:59:44;23.40;59.90
19397;DHT22;9834;48.076;11.878;2023-08-30T13:02:13;22.80;61.70
19397;DHT22;9834;48.076;11.878;2023-08-30T13:04:42;22.50;64.10
19397;DHT22;9834;48.076;11.878;2023-08-30T13:07:14;22.50;68.80
19397;DHT22;9834;48.076;11.878;2023-08-30T13:09:47;22.40;64.90
19397;DHT22;9834;48.076;11.878;2023-08-30T13:12:14;22.30;67.00
19397;DHT22;9834;48.076;11.878;2023-08-30T13:14:42;22.00;66.30
19397;DHT22;9834;48.076;11.878;2023-08-30T13:17:11;21.80;68.70
19397;DHT22;9834;48.076;11.878;2023-08-30T13:19:38;22.20;73.10
19397;DHT22;9834;48.076;11.878;2023-08-30T13:22:05;24.40;71.80
19397;DHT22;9834;48.076;11.878;2023-08-30T13:24:34;28.80;58.20
19397;DHT22;9834;48.076;11.878;2023-08-30T13:27:01;31.50;52.50
19397;DHT22;9834;48.076;11.878;2023-08-30T13:29:42;31.20;48.10
19397;DHT22;9834;48.076;11.878;2023-08-30T13:32:11;29.00;50.90
19397;DHT22;9834;48.076;11.878;2023-08-30T13:34:38;26.90;56.70
19397;DHT22;9834;48.076;11.878;2023-08-30T13:37:05;25.40;59.80
19397;DHT22;9834;48.076;11.878;2023-08-30T13:39:33;24.20;64.70
19397;DHT22;9834;48.076;11.878;2023-08-30T13:42:00;23.00;67.50
19397;DHT22;9834;48.076;11.878;2023-08-30T13:44:31;22.00;71.00
19397;DHT22;9834;48.076;11.878;2023-08-30T13:46:58;21.30;72.80
19397;DHT22;9834;48.076;11.878;2023-08-30T13:49:25;20.70;77.40
19397;DHT22;9834;48.076;11.878;2023-08-30T13:51:53;20.20;80.90
19397;DHT22;9834;48.076;11.878;2023-08-30T13:54:23;19.60;85.10
19397;DHT22;9834;48.076;11.878;2023-08-30T13:56:58;19.10;89.30
19397;DHT22;9834;48.076;11.878;2023-08-30T13:59:37;18.50;92.90
19397;DHT22;9834;48.076;11.878;2023-08-30T14:02:04;18.10;99.00
19397;DHT22;9834;48.076;11.878;2023-08-30T14:04:32;17.80;99.90
19397;DHT22;9834;48.076;11.878;2023-08-30T14:07:07;17.50;99.90
19397;DHT22;9834;48.076;11.878;2023-08-30T14:09:36;17.10;99.90
19397;DHT22;9834;48.076;11.878;2023-08-30T14:12:10;16.70;99.90
19397;DHT22;9834;48.076;11.878;2023-08-30T14:14:36;16.50;99.90
19397;DHT22;9834;48.076;11.878;2023-08-30T14:17:05;16.30;99.90
19397;DHT22;9834;48.076;11.878;2023-08-30T14:19:40;16.30;99.90
19397;DHT22;9834;48.076;11.878;2023-08-30T14:22:10;16.20;99.90
19397;DHT22;9834;48.076;11.878;2023-08-30T14:24:46;16.20;99.90
19397;DHT22;9834;48.076;11.878;2023-08-30T14:27:14;16.20;99.90
19397;DHT22;9834;48.076;11.878;2023-08-30T14:29:44;16.30;99.90
19397;DHT22;9834;48.076;11.878;2023-08-30T14:32:11;16.40;99.90
19397;DHT22;9834;48.076;11.878;2023-08-30T14:34:38;16.60;99.90
19397;DHT22;9834;48.076;11.878;2023-08-30T14:37:05;16.70;99.90
19397;DHT22;9834;48.076;11.878;2023-08-30T14:39:37;16.70;99.90
19397;DHT22;9834;48.076;11.878;2023-08-30T14:42:07;16.80;99.90
19397;DHT22;9834;48.076;11.878;2023-08-30T14:44:41;16.60;99.90
19397;DHT22;9834;48.076;11.878;2023-08-30T14:47:07;16.50;99.90
19397;DHT22;9834;48.076;11.878;2023-08-30T14:49:37;16.50;99.90
19397;DHT22;9834;48.076;11.878;2023-08-30T14:52:04;16.50;99.90
19397;DHT22;9834;48.076;11.878;2023-08-30T14:54:38;16.50;99.90
19397;DHT22;9834;48.076;11.878;2023-08-30T14:57:09;16.60;99.90
19397;DHT22;9834;48.076;11.878;2023-08-30T14:59:39;16.70;99.90
19397;DHT22;9834;48.076;11.878;2023-08-30T15:02:07;16.60;99.90
19397;DHT22;9834;48.076;11.878;2023-08-30T15:04:47;16.50;99.90
19397;DHT22;9834;48.076;11.878;2023-08-30T15:07:17;16.50;99.90
19397;DHT22;9834;48.076;11.878;2023-08-30T15:09:50;16.40;99.90
19397;DHT22;9834;48.076;11.878;2023-08-30T15:12:19;16.30;99.90
19397;DHT22;9834;48.076;11.878;2023-08-30T15:14:50;16.30;99.90
19397;DHT22;9834;48.076;11.878;2023-08-30T15:17:22;16.20;99.90
19397;DHT22;9834;48.076;11.878;2023-08-30T15:19:52;16.20;99.90
19397;DHT22;9834;48.076;11.878;2023-08-30T15:22:24;16.30;99.90
19397;DHT22;9834;48.076;11.878;2023-08-30T15:24:54;16.40;99.90
19397;DHT22;9834;48.076;11.878;2023-08-30T15:27:21;16.50;99.90
19397;DHT22;9834;48.076;11.878;2023-08-30T15:29:51;16.50;99.90
19397;DHT22;9834;48.076;11.878;2023-08-30T15:32:21;16.60;99.90
19397;DHT22;9834;48.076;11.878;2023-08-30T15:34:50;16.60;99.90
19397;DHT22;9834;48.076;11.878;2023-08-30T15:37:17;16.70;99.90
19397;DHT22;9834;48.076;11.878;2023-08-30T15:40:02;16.80;99.90
19397;DHT22;9834;48.076;11.878;2023-08-30T15:42:30;16.90;99.90
19397;DHT22;9834;48.076;11.878;2023-08-30T15:44:58;17.30;99.90
19397;DHT22;9834;48.076;11.878;2023-08-30T15:47:25;17.50;99.90
19397;DHT22;9834;48.076;11.878;2023-08-30T15:49:56;17.90;99.90
19397;DHT22;9834;48.076;11.878;2023-08-30T15:52:32;18.60;99.90